<?xml version="1.0" encoding="UTF-8" standalone="no" ?>
<gpx xmlns="http://www.topografix.com/GPX/1/1" xmlns:xsi="http://www.w3.org/2001/XMLSchema-instance" xsi:schemaLocation="http://www.topografix.com/GPX/1/1 http://www.topografix.com/GPX/1/1/gpx.xsd" version="1.1" creator="VisuGPX - https://www.visugpx.com">
  <metadata>
    <name>Païolive La corniche l' Ermitage</name>
    <desc><![CDATA[Au départ de Lestong passage sur une corniche aérienne au dessus du cirque d' Endieu jusqu?à l'Ermitage de Saint Eugène.]]></desc>
  </metadata>
  <wpt lat="44.39395" lon="4.19232">
    <ele>182.14</ele>
    <name><![CDATA[0000059]]></name>
    <type><![CDATA[Point de départ]]></type>
  </wpt>
  <wpt lat="44.3934" lon="4.19185">
    <ele>187.25</ele>
    <name><![CDATA[0000060]]></name>
    <desc><![CDATA[<p><br /><h3>Nom: Segment: 1</h3><br />Heure de départ: 13:51 8 mars 2019<br/>Heure d'arrivée: 16:59 8 mars 2019<br/>Distance: 5,2km (03:08)<br/>Temps déplacement: 01:29<br/>Vitesse moyenne: 1,66 km/h<br/>Vitesse moyenne mouv.: 3,49 km/h<br/>Vitesse Max.: 6,32 km/h<br/>Altitude minimale: 177 m<br/>Altitude maximale: 248 m<br/>Vitesse de montée: 124,4 m/h<br/>Vitesse de descente: -100,7 m/h<br/>Gain d'altitude: 169 m<br/>Perte d'altitude: -164 m<br/>Temps de montée: 01:21<br/>Temps de descente: 01:37<br/></p>]]></desc>
    <type><![CDATA[Point d'arrivée]]></type>
  </wpt>
  <trk>
    <name><![CDATA[2019-03-08 13:51]]></name>
    <desc><![CDATA[<p>Heure de départ: 13:51 8 mars 2019<br/>Heure d'arrivée: 16:59 8 mars 2019<br/>Distance: 5,2 km (03:08)<br/>Temps déplacement: 01:29<br/>Vitesse moyenne: 1,66 km/h<br/>Vitesse moyenne mouv.: 3,49 km/h<br/>Vitesse Max.: 6,32 km/h<br/>Altitude minimale: 177 m<br/>Altitude maximale: 248 m<br/>Vitesse de montée: 118,7 m/h<br/>Vitesse de descente: -88,2 m/h<br/>Gain d'altitude: 160 m<br/>Perte d'altitude: -154 m<br/>Temps de montée: 01:21<br/>Temps de descente: 01:45<br/></p><hr align="center" width="480" style="height: 2px; width: 517px"/>]]></desc>
    <trkseg>
      <trkpt lat="44.39395" lon="4.19232">
        <ele>182.14</ele>
        <time>2019-03-08T12:51:39Z</time>
      </trkpt>
      <trkpt lat="44.39416" lon="4.19233">
        <ele>180.89</ele>
        <time>2019-03-08T12:52:00Z</time>
      </trkpt>
      <trkpt lat="44.39437" lon="4.19226">
        <ele>178.56</ele>
        <time>2019-03-08T12:52:23Z</time>
      </trkpt>
      <trkpt lat="44.39453" lon="4.19214">
        <ele>181.72</ele>
        <time>2019-03-08T12:52:45Z</time>
      </trkpt>
      <trkpt lat="44.39471" lon="4.19197">
        <ele>177.35</ele>
        <time>2019-03-08T12:53:11Z</time>
      </trkpt>
      <trkpt lat="44.39488" lon="4.19188">
        <ele>184.03</ele>
        <time>2019-03-08T12:53:41Z</time>
      </trkpt>
      <trkpt lat="44.39505" lon="4.19174">
        <ele>178.87</ele>
        <time>2019-03-08T12:54:43Z</time>
      </trkpt>
      <trkpt lat="44.39522" lon="4.19162">
        <ele>188</ele>
        <time>2019-03-08T12:55:07Z</time>
      </trkpt>
      <trkpt lat="44.39539" lon="4.19154">
        <ele>189.94</ele>
        <time>2019-03-08T12:55:29Z</time>
      </trkpt>
      <trkpt lat="44.39556" lon="4.1914">
        <ele>184.99</ele>
        <time>2019-03-08T12:55:47Z</time>
      </trkpt>
      <trkpt lat="44.39574" lon="4.19126">
        <ele>184.71</ele>
        <time>2019-03-08T12:56:05Z</time>
      </trkpt>
      <trkpt lat="44.39599" lon="4.19127">
        <ele>192.4</ele>
        <time>2019-03-08T12:56:59Z</time>
      </trkpt>
      <trkpt lat="44.3962" lon="4.19118">
        <ele>192.78</ele>
        <time>2019-03-08T12:57:31Z</time>
      </trkpt>
      <trkpt lat="44.39638" lon="4.19111">
        <ele>196.08</ele>
        <time>2019-03-08T12:57:57Z</time>
      </trkpt>
      <trkpt lat="44.39653" lon="4.19097">
        <ele>187.58</ele>
        <time>2019-03-08T12:58:45Z</time>
      </trkpt>
      <trkpt lat="44.3967" lon="4.19106">
        <ele>184.88</ele>
        <time>2019-03-08T12:59:05Z</time>
      </trkpt>
      <trkpt lat="44.39683" lon="4.19128">
        <ele>191.33</ele>
        <time>2019-03-08T12:59:49Z</time>
      </trkpt>
      <trkpt lat="44.39698" lon="4.19143">
        <ele>183.51</ele>
        <time>2019-03-08T13:00:17Z</time>
      </trkpt>
      <trkpt lat="44.39713" lon="4.1916">
        <ele>180.67</ele>
        <time>2019-03-08T13:00:43Z</time>
      </trkpt>
      <trkpt lat="44.39729" lon="4.19178">
        <ele>182.17</ele>
        <time>2019-03-08T13:01:31Z</time>
      </trkpt>
      <trkpt lat="44.39749" lon="4.19183">
        <ele>182.57</ele>
        <time>2019-03-08T13:01:45Z</time>
      </trkpt>
      <trkpt lat="44.39768" lon="4.1918">
        <ele>178.47</ele>
        <time>2019-03-08T13:01:57Z</time>
      </trkpt>
      <trkpt lat="44.39777" lon="4.19202">
        <ele>183.36</ele>
        <time>2019-03-08T13:02:27Z</time>
      </trkpt>
      <trkpt lat="44.39798" lon="4.19203">
        <ele>189.16</ele>
        <time>2019-03-08T13:02:47Z</time>
      </trkpt>
      <trkpt lat="44.39816" lon="4.19193">
        <ele>190.16</ele>
        <time>2019-03-08T13:03:13Z</time>
      </trkpt>
      <trkpt lat="44.39835" lon="4.19191">
        <ele>187.82</ele>
        <time>2019-03-08T13:06:19Z</time>
      </trkpt>
      <trkpt lat="44.3985" lon="4.19176">
        <ele>193.16</ele>
        <time>2019-03-08T13:07:01Z</time>
      </trkpt>
      <trkpt lat="44.39867" lon="4.19165">
        <ele>193.47</ele>
        <time>2019-03-08T13:07:25Z</time>
      </trkpt>
      <trkpt lat="44.39875" lon="4.19143">
        <ele>179.97</ele>
        <time>2019-03-08T13:07:41Z</time>
      </trkpt>
      <trkpt lat="44.39894" lon="4.19146">
        <ele>190.06</ele>
        <time>2019-03-08T13:08:29Z</time>
      </trkpt>
      <trkpt lat="44.39912" lon="4.19136">
        <ele>199.27</ele>
        <time>2019-03-08T13:09:43Z</time>
      </trkpt>
      <trkpt lat="44.39929" lon="4.1913">
        <ele>206.5</ele>
        <time>2019-03-08T13:11:57Z</time>
      </trkpt>
      <trkpt lat="44.39947" lon="4.1912">
        <ele>202.92</ele>
        <time>2019-03-08T13:13:25Z</time>
      </trkpt>
      <trkpt lat="44.39965" lon="4.19118">
        <ele>204.99</ele>
        <time>2019-03-08T13:15:09Z</time>
      </trkpt>
      <trkpt lat="44.39984" lon="4.19119">
        <ele>202.86</ele>
        <time>2019-03-08T13:15:59Z</time>
      </trkpt>
      <trkpt lat="44.40001" lon="4.19112">
        <ele>204.99</ele>
        <time>2019-03-08T13:16:39Z</time>
      </trkpt>
      <trkpt lat="44.40019" lon="4.19119">
        <ele>202.75</ele>
        <time>2019-03-08T13:17:51Z</time>
      </trkpt>
      <trkpt lat="44.40038" lon="4.19117">
        <ele>202.57</ele>
        <time>2019-03-08T13:18:15Z</time>
      </trkpt>
      <trkpt lat="44.40055" lon="4.19096">
        <ele>203.34</ele>
        <time>2019-03-08T13:18:29Z</time>
      </trkpt>
      <trkpt lat="44.40073" lon="4.19106">
        <ele>211.17</ele>
        <time>2019-03-08T13:19:47Z</time>
      </trkpt>
      <trkpt lat="44.40092" lon="4.19099">
        <ele>213.71</ele>
        <time>2019-03-08T13:21:19Z</time>
      </trkpt>
      <trkpt lat="44.40107" lon="4.19086">
        <ele>217.79</ele>
        <time>2019-03-08T13:21:49Z</time>
      </trkpt>
      <trkpt lat="44.40124" lon="4.19074">
        <ele>225.74</ele>
        <time>2019-03-08T13:23:21Z</time>
      </trkpt>
      <trkpt lat="44.40138" lon="4.19059">
        <ele>224.01</ele>
        <time>2019-03-08T13:26:23Z</time>
      </trkpt>
      <trkpt lat="44.40157" lon="4.19053">
        <ele>226.56</ele>
        <time>2019-03-08T13:26:53Z</time>
      </trkpt>
      <trkpt lat="44.40169" lon="4.19034">
        <ele>219.07</ele>
        <time>2019-03-08T13:28:23Z</time>
      </trkpt>
      <trkpt lat="44.40184" lon="4.19019">
        <ele>225.95</ele>
        <time>2019-03-08T13:33:18Z</time>
      </trkpt>
      <trkpt lat="44.40199" lon="4.19006">
        <ele>225.46</ele>
        <time>2019-03-08T13:34:58Z</time>
      </trkpt>
      <trkpt lat="44.40203" lon="4.1898">
        <ele>224.23</ele>
        <time>2019-03-08T13:36:20Z</time>
      </trkpt>
      <trkpt lat="44.40221" lon="4.18973">
        <ele>220.84</ele>
        <time>2019-03-08T13:37:44Z</time>
      </trkpt>
      <trkpt lat="44.40232" lon="4.18954">
        <ele>220.92</ele>
        <time>2019-03-08T13:39:10Z</time>
      </trkpt>
      <trkpt lat="44.40242" lon="4.18931">
        <ele>221.13</ele>
        <time>2019-03-08T13:39:34Z</time>
      </trkpt>
      <trkpt lat="44.40247" lon="4.18905">
        <ele>215.54</ele>
        <time>2019-03-08T13:44:44Z</time>
      </trkpt>
      <trkpt lat="44.40256" lon="4.18882">
        <ele>213.16</ele>
        <time>2019-03-08T13:45:08Z</time>
      </trkpt>
      <trkpt lat="44.40265" lon="4.18859">
        <ele>214.25</ele>
        <time>2019-03-08T13:46:02Z</time>
      </trkpt>
      <trkpt lat="44.40278" lon="4.1884">
        <ele>215.67</ele>
        <time>2019-03-08T13:46:40Z</time>
      </trkpt>
      <trkpt lat="44.40296" lon="4.18833">
        <ele>217.5</ele>
        <time>2019-03-08T13:47:08Z</time>
      </trkpt>
      <trkpt lat="44.40314" lon="4.18831">
        <ele>212.85</ele>
        <time>2019-03-08T13:48:18Z</time>
      </trkpt>
      <trkpt lat="44.40332" lon="4.18834">
        <ele>213.95</ele>
        <time>2019-03-08T13:50:08Z</time>
      </trkpt>
      <trkpt lat="44.4035" lon="4.18837">
        <ele>207.65</ele>
        <time>2019-03-08T13:52:30Z</time>
      </trkpt>
      <trkpt lat="44.40365" lon="4.18822">
        <ele>208.82</ele>
        <time>2019-03-08T13:55:10Z</time>
      </trkpt>
      <trkpt lat="44.40371" lon="4.18798">
        <ele>209.88</ele>
        <time>2019-03-08T13:56:28Z</time>
      </trkpt>
      <trkpt lat="44.40372" lon="4.18773">
        <ele>211.84</ele>
        <time>2019-03-08T13:57:42Z</time>
      </trkpt>
      <trkpt lat="44.40368" lon="4.18748">
        <ele>215.62</ele>
        <time>2019-03-08T13:58:46Z</time>
      </trkpt>
      <trkpt lat="44.40369" lon="4.18722">
        <ele>221.2</ele>
        <time>2019-03-08T13:59:38Z</time>
      </trkpt>
      <trkpt lat="44.40378" lon="4.18694">
        <ele>228.22</ele>
        <time>2019-03-08T14:00:22Z</time>
      </trkpt>
      <trkpt lat="44.40385" lon="4.18671">
        <ele>227.07</ele>
        <time>2019-03-08T14:03:46Z</time>
      </trkpt>
      <trkpt lat="44.40396" lon="4.1865">
        <ele>233.68</ele>
        <time>2019-03-08T14:04:24Z</time>
      </trkpt>
      <trkpt lat="44.40403" lon="4.18627">
        <ele>231.26</ele>
        <time>2019-03-08T14:04:52Z</time>
      </trkpt>
      <trkpt lat="44.40406" lon="4.18601">
        <ele>230.84</ele>
        <time>2019-03-08T14:05:20Z</time>
      </trkpt>
      <trkpt lat="44.4041" lon="4.18575">
        <ele>232.53</ele>
        <time>2019-03-08T14:05:54Z</time>
      </trkpt>
      <trkpt lat="44.40397" lon="4.18557">
        <ele>233.37</ele>
        <time>2019-03-08T14:06:28Z</time>
      </trkpt>
      <trkpt lat="44.40398" lon="4.1853">
        <ele>233.9</ele>
        <time>2019-03-08T14:07:02Z</time>
      </trkpt>
      <trkpt lat="44.40394" lon="4.18505">
        <ele>233.51</ele>
        <time>2019-03-08T14:07:30Z</time>
      </trkpt>
      <trkpt lat="44.40391" lon="4.18478">
        <ele>232.59</ele>
        <time>2019-03-08T14:08:02Z</time>
      </trkpt>
      <trkpt lat="44.40388" lon="4.18453">
        <ele>237.07</ele>
        <time>2019-03-08T14:08:36Z</time>
      </trkpt>
      <trkpt lat="44.40396" lon="4.18428">
        <ele>235.67</ele>
        <time>2019-03-08T14:09:08Z</time>
      </trkpt>
      <trkpt lat="44.404" lon="4.18402">
        <ele>235.25</ele>
        <time>2019-03-08T14:09:40Z</time>
      </trkpt>
      <trkpt lat="44.40406" lon="4.18378">
        <ele>237.04</ele>
        <time>2019-03-08T14:10:04Z</time>
      </trkpt>
      <trkpt lat="44.40398" lon="4.18354">
        <ele>237.67</ele>
        <time>2019-03-08T14:10:46Z</time>
      </trkpt>
      <trkpt lat="44.4039" lon="4.18331">
        <ele>236.08</ele>
        <time>2019-03-08T14:11:36Z</time>
      </trkpt>
      <trkpt lat="44.40374" lon="4.18322">
        <ele>236.37</ele>
        <time>2019-03-08T14:12:06Z</time>
      </trkpt>
      <trkpt lat="44.40356" lon="4.18314">
        <ele>240.1</ele>
        <time>2019-03-08T14:13:04Z</time>
      </trkpt>
      <trkpt lat="44.40358" lon="4.18288">
        <ele>230.28</ele>
        <time>2019-03-08T14:18:46Z</time>
      </trkpt>
      <trkpt lat="44.40352" lon="4.18264">
        <ele>234.18</ele>
        <time>2019-03-08T14:19:12Z</time>
      </trkpt>
      <trkpt lat="44.40348" lon="4.18238">
        <ele>233.71</ele>
        <time>2019-03-08T14:19:40Z</time>
      </trkpt>
      <trkpt lat="44.40355" lon="4.18215">
        <ele>234.46</ele>
        <time>2019-03-08T14:20:26Z</time>
      </trkpt>
      <trkpt lat="44.40357" lon="4.18188">
        <ele>239.25</ele>
        <time>2019-03-08T14:20:54Z</time>
      </trkpt>
      <trkpt lat="44.4036" lon="4.18162">
        <ele>245.33</ele>
        <time>2019-03-08T14:21:26Z</time>
      </trkpt>
      <trkpt lat="44.40367" lon="4.18138">
        <ele>248.43</ele>
        <time>2019-03-08T14:23:04Z</time>
      </trkpt>
      <trkpt lat="44.40376" lon="4.18114">
        <ele>242.09</ele>
        <time>2019-03-08T14:23:32Z</time>
      </trkpt>
      <trkpt lat="44.40385" lon="4.18092">
        <ele>240.32</ele>
        <time>2019-03-08T14:24:00Z</time>
      </trkpt>
      <trkpt lat="44.40395" lon="4.1807">
        <ele>237.36</ele>
        <time>2019-03-08T14:24:36Z</time>
      </trkpt>
      <trkpt lat="44.40383" lon="4.18049">
        <ele>238.81</ele>
        <time>2019-03-08T14:26:00Z</time>
      </trkpt>
      <trkpt lat="44.40401" lon="4.18059">
        <ele>235.54</ele>
        <time>2019-03-08T14:30:32Z</time>
      </trkpt>
      <trkpt lat="44.40402" lon="4.18032">
        <ele>237.18</ele>
        <time>2019-03-08T14:30:56Z</time>
      </trkpt>
      <trkpt lat="44.40399" lon="4.18007">
        <ele>233.4</ele>
        <time>2019-03-08T14:31:18Z</time>
      </trkpt>
      <trkpt lat="44.40399" lon="4.17979">
        <ele>229.16</ele>
        <time>2019-03-08T14:32:00Z</time>
      </trkpt>
      <trkpt lat="44.40398" lon="4.17953">
        <ele>229.94</ele>
        <time>2019-03-08T14:32:34Z</time>
      </trkpt>
      <trkpt lat="44.40396" lon="4.17927">
        <ele>228.28</ele>
        <time>2019-03-08T14:32:58Z</time>
      </trkpt>
      <trkpt lat="44.40379" lon="4.17915">
        <ele>228.26</ele>
        <time>2019-03-08T14:33:24Z</time>
      </trkpt>
      <trkpt lat="44.40362" lon="4.17905">
        <ele>223.29</ele>
        <time>2019-03-08T14:33:56Z</time>
      </trkpt>
      <trkpt lat="44.40359" lon="4.17879">
        <ele>221.11</ele>
        <time>2019-03-08T14:34:22Z</time>
      </trkpt>
      <trkpt lat="44.40357" lon="4.17852">
        <ele>226.89</ele>
        <time>2019-03-08T14:34:56Z</time>
      </trkpt>
      <trkpt lat="44.40363" lon="4.17828">
        <ele>226.91</ele>
        <time>2019-03-08T14:35:28Z</time>
      </trkpt>
      <trkpt lat="44.40366" lon="4.17802">
        <ele>227.59</ele>
        <time>2019-03-08T14:36:08Z</time>
      </trkpt>
      <trkpt lat="44.40372" lon="4.17778">
        <ele>228.3</ele>
        <time>2019-03-08T14:37:28Z</time>
      </trkpt>
      <trkpt lat="44.4037" lon="4.17751">
        <ele>229.96</ele>
        <time>2019-03-08T14:38:04Z</time>
      </trkpt>
      <trkpt lat="44.40379" lon="4.17728">
        <ele>233.59</ele>
        <time>2019-03-08T14:38:44Z</time>
      </trkpt>
      <trkpt lat="44.4038" lon="4.17701">
        <ele>230.23</ele>
        <time>2019-03-08T14:40:32Z</time>
      </trkpt>
      <trkpt lat="44.40398" lon="4.17713">
        <ele>244.26</ele>
        <time>2019-03-08T14:42:04Z</time>
      </trkpt>
      <trkpt lat="44.40415" lon="4.17721">
        <ele>241.35</ele>
        <time>2019-03-08T14:42:26Z</time>
      </trkpt>
      <trkpt lat="44.40433" lon="4.1771">
        <ele>238.02</ele>
        <time>2019-03-08T14:42:50Z</time>
      </trkpt>
      <trkpt lat="44.40447" lon="4.17692">
        <ele>236.22</ele>
        <time>2019-03-08T14:43:18Z</time>
      </trkpt>
      <trkpt lat="44.40447" lon="4.17665">
        <ele>235.29</ele>
        <time>2019-03-08T14:43:48Z</time>
      </trkpt>
      <trkpt lat="44.40441" lon="4.17639">
        <ele>229.78</ele>
        <time>2019-03-08T14:45:20Z</time>
      </trkpt>
      <trkpt lat="44.40447" lon="4.1767">
        <ele>234.9</ele>
        <time>2019-03-08T14:46:04Z</time>
      </trkpt>
      <trkpt lat="44.40446" lon="4.17697">
        <ele>237.07</ele>
        <time>2019-03-08T14:46:34Z</time>
      </trkpt>
      <trkpt lat="44.40431" lon="4.17713">
        <ele>231.53</ele>
        <time>2019-03-08T14:47:10Z</time>
      </trkpt>
      <trkpt lat="44.40412" lon="4.17709">
        <ele>224.06</ele>
        <time>2019-03-08T14:47:50Z</time>
      </trkpt>
      <trkpt lat="44.40394" lon="4.17709">
        <ele>228.75</ele>
        <time>2019-03-08T14:48:14Z</time>
      </trkpt>
      <trkpt lat="44.40384" lon="4.17687">
        <ele>224.92</ele>
        <time>2019-03-08T14:48:38Z</time>
      </trkpt>
      <trkpt lat="44.40367" lon="4.17678">
        <ele>239.99</ele>
        <time>2019-03-08T14:49:34Z</time>
      </trkpt>
      <trkpt lat="44.40352" lon="4.17658">
        <ele>236.82</ele>
        <time>2019-03-08T14:50:00Z</time>
      </trkpt>
      <trkpt lat="44.40333" lon="4.17649">
        <ele>233.67</ele>
        <time>2019-03-08T14:51:28Z</time>
      </trkpt>
      <trkpt lat="44.40321" lon="4.17627">
        <ele>230.38</ele>
        <time>2019-03-08T14:51:48Z</time>
      </trkpt>
      <trkpt lat="44.40309" lon="4.17607">
        <ele>230.08</ele>
        <time>2019-03-08T14:52:20Z</time>
      </trkpt>
      <trkpt lat="44.40292" lon="4.176">
        <ele>222.04</ele>
        <time>2019-03-08T14:52:42Z</time>
      </trkpt>
      <trkpt lat="44.40274" lon="4.17606">
        <ele>215.95</ele>
        <time>2019-03-08T14:53:08Z</time>
      </trkpt>
      <trkpt lat="44.40256" lon="4.17611">
        <ele>214.56</ele>
        <time>2019-03-08T14:53:36Z</time>
      </trkpt>
      <trkpt lat="44.40239" lon="4.17599">
        <ele>215.98</ele>
        <time>2019-03-08T14:53:54Z</time>
      </trkpt>
      <trkpt lat="44.40222" lon="4.1758">
        <ele>216.5</ele>
        <time>2019-03-08T14:54:22Z</time>
      </trkpt>
      <trkpt lat="44.40211" lon="4.17557">
        <ele>216.43</ele>
        <time>2019-03-08T14:54:40Z</time>
      </trkpt>
      <trkpt lat="44.40195" lon="4.17533">
        <ele>222.25</ele>
        <time>2019-03-08T14:55:44Z</time>
      </trkpt>
      <trkpt lat="44.40195" lon="4.17507">
        <ele>224.3</ele>
        <time>2019-03-08T14:56:14Z</time>
      </trkpt>
      <trkpt lat="44.40204" lon="4.17484">
        <ele>226.38</ele>
        <time>2019-03-08T14:56:40Z</time>
      </trkpt>
      <trkpt lat="44.40208" lon="4.17459">
        <ele>223.06</ele>
        <time>2019-03-08T14:57:04Z</time>
      </trkpt>
      <trkpt lat="44.40214" lon="4.17432">
        <ele>228.16</ele>
        <time>2019-03-08T14:57:30Z</time>
      </trkpt>
      <trkpt lat="44.40218" lon="4.17407">
        <ele>223.52</ele>
        <time>2019-03-08T14:57:48Z</time>
      </trkpt>
      <trkpt lat="44.40228" lon="4.17386">
        <ele>215.66</ele>
        <time>2019-03-08T15:00:06Z</time>
      </trkpt>
      <trkpt lat="44.40232" lon="4.17361">
        <ele>222.38</ele>
        <time>2019-03-08T15:00:38Z</time>
      </trkpt>
      <trkpt lat="44.4022" lon="4.17342">
        <ele>219.32</ele>
        <time>2019-03-08T15:00:54Z</time>
      </trkpt>
      <trkpt lat="44.40203" lon="4.17326">
        <ele>212.35</ele>
        <time>2019-03-08T15:01:22Z</time>
      </trkpt>
      <trkpt lat="44.40185" lon="4.17322">
        <ele>224.05</ele>
        <time>2019-03-08T15:02:02Z</time>
      </trkpt>
      <trkpt lat="44.40166" lon="4.17315">
        <ele>220.63</ele>
        <time>2019-03-08T15:02:22Z</time>
      </trkpt>
      <trkpt lat="44.40147" lon="4.17319">
        <ele>223.43</ele>
        <time>2019-03-08T15:02:44Z</time>
      </trkpt>
      <trkpt lat="44.40134" lon="4.17336">
        <ele>230.88</ele>
        <time>2019-03-08T15:03:36Z</time>
      </trkpt>
      <trkpt lat="44.4013" lon="4.17361">
        <ele>226.53</ele>
        <time>2019-03-08T15:04:04Z</time>
      </trkpt>
      <trkpt lat="44.40129" lon="4.17388">
        <ele>216.92</ele>
        <time>2019-03-08T15:04:32Z</time>
      </trkpt>
      <trkpt lat="44.40125" lon="4.17414">
        <ele>230.04</ele>
        <time>2019-03-08T15:04:56Z</time>
      </trkpt>
      <trkpt lat="44.40107" lon="4.17423">
        <ele>226.75</ele>
        <time>2019-03-08T15:05:22Z</time>
      </trkpt>
      <trkpt lat="44.4009" lon="4.1743">
        <ele>225.81</ele>
        <time>2019-03-08T15:05:56Z</time>
      </trkpt>
      <trkpt lat="44.40072" lon="4.17441">
        <ele>226.45</ele>
        <time>2019-03-08T15:06:14Z</time>
      </trkpt>
      <trkpt lat="44.40057" lon="4.17456">
        <ele>215.32</ele>
        <time>2019-03-08T15:06:46Z</time>
      </trkpt>
      <trkpt lat="44.40039" lon="4.1746">
        <ele>230.76</ele>
        <time>2019-03-08T15:07:02Z</time>
      </trkpt>
      <trkpt lat="44.4002" lon="4.17465">
        <ele>229.05</ele>
        <time>2019-03-08T15:07:32Z</time>
      </trkpt>
      <trkpt lat="44.40001" lon="4.17469">
        <ele>228.84</ele>
        <time>2019-03-08T15:08:00Z</time>
      </trkpt>
      <trkpt lat="44.39983" lon="4.17476">
        <ele>228.36</ele>
        <time>2019-03-08T15:08:22Z</time>
      </trkpt>
      <trkpt lat="44.39967" lon="4.17488">
        <ele>229.55</ele>
        <time>2019-03-08T15:08:52Z</time>
      </trkpt>
      <trkpt lat="44.39948" lon="4.17494">
        <ele>225.81</ele>
        <time>2019-03-08T15:09:14Z</time>
      </trkpt>
      <trkpt lat="44.39929" lon="4.17496">
        <ele>231.51</ele>
        <time>2019-03-08T15:09:46Z</time>
      </trkpt>
      <trkpt lat="44.39911" lon="4.17501">
        <ele>230.37</ele>
        <time>2019-03-08T15:10:10Z</time>
      </trkpt>
      <trkpt lat="44.39893" lon="4.175">
        <ele>230.35</ele>
        <time>2019-03-08T15:10:32Z</time>
      </trkpt>
      <trkpt lat="44.39874" lon="4.17505">
        <ele>228.37</ele>
        <time>2019-03-08T15:10:58Z</time>
      </trkpt>
      <trkpt lat="44.39859" lon="4.1752">
        <ele>229.81</ele>
        <time>2019-03-08T15:11:36Z</time>
      </trkpt>
      <trkpt lat="44.39848" lon="4.1754">
        <ele>226.85</ele>
        <time>2019-03-08T15:12:00Z</time>
      </trkpt>
      <trkpt lat="44.39845" lon="4.17566">
        <ele>224.71</ele>
        <time>2019-03-08T15:12:40Z</time>
      </trkpt>
      <trkpt lat="44.39844" lon="4.17593">
        <ele>222.99</ele>
        <time>2019-03-08T15:13:10Z</time>
      </trkpt>
      <trkpt lat="44.39841" lon="4.17618">
        <ele>225.62</ele>
        <time>2019-03-08T15:13:38Z</time>
      </trkpt>
      <trkpt lat="44.39833" lon="4.17643">
        <ele>223.09</ele>
        <time>2019-03-08T15:14:12Z</time>
      </trkpt>
      <trkpt lat="44.39821" lon="4.17663">
        <ele>222.01</ele>
        <time>2019-03-08T15:14:34Z</time>
      </trkpt>
      <trkpt lat="44.39809" lon="4.17683">
        <ele>222.89</ele>
        <time>2019-03-08T15:14:58Z</time>
      </trkpt>
      <trkpt lat="44.39796" lon="4.177">
        <ele>226.81</ele>
        <time>2019-03-08T15:15:22Z</time>
      </trkpt>
      <trkpt lat="44.39781" lon="4.17715">
        <ele>224.2</ele>
        <time>2019-03-08T15:15:50Z</time>
      </trkpt>
      <trkpt lat="44.3977" lon="4.17737">
        <ele>224.52</ele>
        <time>2019-03-08T15:16:22Z</time>
      </trkpt>
      <trkpt lat="44.39754" lon="4.1775">
        <ele>222.21</ele>
        <time>2019-03-08T15:16:50Z</time>
      </trkpt>
      <trkpt lat="44.39737" lon="4.1776">
        <ele>221.91</ele>
        <time>2019-03-08T15:17:20Z</time>
      </trkpt>
      <trkpt lat="44.39729" lon="4.17782">
        <ele>218.12</ele>
        <time>2019-03-08T15:17:46Z</time>
      </trkpt>
      <trkpt lat="44.39721" lon="4.17805">
        <ele>213.46</ele>
        <time>2019-03-08T15:18:14Z</time>
      </trkpt>
      <trkpt lat="44.39713" lon="4.1783">
        <ele>221.97</ele>
        <time>2019-03-08T15:22:50Z</time>
      </trkpt>
      <trkpt lat="44.39696" lon="4.17843">
        <ele>219</ele>
        <time>2019-03-08T15:23:06Z</time>
      </trkpt>
      <trkpt lat="44.39684" lon="4.17862">
        <ele>214.04</ele>
        <time>2019-03-08T15:23:40Z</time>
      </trkpt>
      <trkpt lat="44.3967" lon="4.17878">
        <ele>214.89</ele>
        <time>2019-03-08T15:24:08Z</time>
      </trkpt>
      <trkpt lat="44.39655" lon="4.17893">
        <ele>208.54</ele>
        <time>2019-03-08T15:24:58Z</time>
      </trkpt>
      <trkpt lat="44.39655" lon="4.17918">
        <ele>212.56</ele>
        <time>2019-03-08T15:25:22Z</time>
      </trkpt>
      <trkpt lat="44.39664" lon="4.17939">
        <ele>213.23</ele>
        <time>2019-03-08T15:26:40Z</time>
      </trkpt>
      <trkpt lat="44.39678" lon="4.17957">
        <ele>207.54</ele>
        <time>2019-03-08T15:28:40Z</time>
      </trkpt>
      <trkpt lat="44.3968" lon="4.17983">
        <ele>208.89</ele>
        <time>2019-03-08T15:29:20Z</time>
      </trkpt>
      <trkpt lat="44.39684" lon="4.18009">
        <ele>208.42</ele>
        <time>2019-03-08T15:29:52Z</time>
      </trkpt>
      <trkpt lat="44.39693" lon="4.18033">
        <ele>213.1</ele>
        <time>2019-03-08T15:30:20Z</time>
      </trkpt>
      <trkpt lat="44.39695" lon="4.1806">
        <ele>213.16</ele>
        <time>2019-03-08T15:30:48Z</time>
      </trkpt>
      <trkpt lat="44.39696" lon="4.18087">
        <ele>212.37</ele>
        <time>2019-03-08T15:31:22Z</time>
      </trkpt>
      <trkpt lat="44.39691" lon="4.18111">
        <ele>216.09</ele>
        <time>2019-03-08T15:31:42Z</time>
      </trkpt>
      <trkpt lat="44.39682" lon="4.18136">
        <ele>218.46</ele>
        <time>2019-03-08T15:32:16Z</time>
      </trkpt>
      <trkpt lat="44.39677" lon="4.18161">
        <ele>216.2</ele>
        <time>2019-03-08T15:32:52Z</time>
      </trkpt>
      <trkpt lat="44.39672" lon="4.18185">
        <ele>215.29</ele>
        <time>2019-03-08T15:33:10Z</time>
      </trkpt>
      <trkpt lat="44.39664" lon="4.18208">
        <ele>216.23</ele>
        <time>2019-03-08T15:33:40Z</time>
      </trkpt>
      <trkpt lat="44.39654" lon="4.18232">
        <ele>210.24</ele>
        <time>2019-03-08T15:34:08Z</time>
      </trkpt>
      <trkpt lat="44.39649" lon="4.18257">
        <ele>209.64</ele>
        <time>2019-03-08T15:34:30Z</time>
      </trkpt>
      <trkpt lat="44.39643" lon="4.18282">
        <ele>210.18</ele>
        <time>2019-03-08T15:34:52Z</time>
      </trkpt>
      <trkpt lat="44.39635" lon="4.18306">
        <ele>209.94</ele>
        <time>2019-03-08T15:35:20Z</time>
      </trkpt>
      <trkpt lat="44.39633" lon="4.18332">
        <ele>207.51</ele>
        <time>2019-03-08T15:35:54Z</time>
      </trkpt>
      <trkpt lat="44.3963" lon="4.18357">
        <ele>206.43</ele>
        <time>2019-03-08T15:36:18Z</time>
      </trkpt>
      <trkpt lat="44.39625" lon="4.18381">
        <ele>204.25</ele>
        <time>2019-03-08T15:36:42Z</time>
      </trkpt>
      <trkpt lat="44.39618" lon="4.18406">
        <ele>207.23</ele>
        <time>2019-03-08T15:37:10Z</time>
      </trkpt>
      <trkpt lat="44.39616" lon="4.18432">
        <ele>208.69</ele>
        <time>2019-03-08T15:37:42Z</time>
      </trkpt>
      <trkpt lat="44.3961" lon="4.18456">
        <ele>207.35</ele>
        <time>2019-03-08T15:38:06Z</time>
      </trkpt>
      <trkpt lat="44.39605" lon="4.18481">
        <ele>201.38</ele>
        <time>2019-03-08T15:38:42Z</time>
      </trkpt>
      <trkpt lat="44.39604" lon="4.18506">
        <ele>201.15</ele>
        <time>2019-03-08T15:39:10Z</time>
      </trkpt>
      <trkpt lat="44.39606" lon="4.18533">
        <ele>205.75</ele>
        <time>2019-03-08T15:39:46Z</time>
      </trkpt>
      <trkpt lat="44.39596" lon="4.18555">
        <ele>203.36</ele>
        <time>2019-03-08T15:40:06Z</time>
      </trkpt>
      <trkpt lat="44.39593" lon="4.1858">
        <ele>203.02</ele>
        <time>2019-03-08T15:40:36Z</time>
      </trkpt>
      <trkpt lat="44.39587" lon="4.18606">
        <ele>208.71</ele>
        <time>2019-03-08T15:40:52Z</time>
      </trkpt>
      <trkpt lat="44.3958" lon="4.18629">
        <ele>203.2</ele>
        <time>2019-03-08T15:41:18Z</time>
      </trkpt>
      <trkpt lat="44.39581" lon="4.18655">
        <ele>203.43</ele>
        <time>2019-03-08T15:41:46Z</time>
      </trkpt>
      <trkpt lat="44.39575" lon="4.18681">
        <ele>200.27</ele>
        <time>2019-03-08T15:42:08Z</time>
      </trkpt>
      <trkpt lat="44.39578" lon="4.18707">
        <ele>203.36</ele>
        <time>2019-03-08T15:42:28Z</time>
      </trkpt>
      <trkpt lat="44.39575" lon="4.18734">
        <ele>207.91</ele>
        <time>2019-03-08T15:43:04Z</time>
      </trkpt>
      <trkpt lat="44.39567" lon="4.18757">
        <ele>209.43</ele>
        <time>2019-03-08T15:43:40Z</time>
      </trkpt>
      <trkpt lat="44.39558" lon="4.1878">
        <ele>209.29</ele>
        <time>2019-03-08T15:44:02Z</time>
      </trkpt>
      <trkpt lat="44.39549" lon="4.18802">
        <ele>203.19</ele>
        <time>2019-03-08T15:49:18Z</time>
      </trkpt>
      <trkpt lat="44.3954" lon="4.18826">
        <ele>207.52</ele>
        <time>2019-03-08T15:49:36Z</time>
      </trkpt>
      <trkpt lat="44.3954" lon="4.18851">
        <ele>204.81</ele>
        <time>2019-03-08T15:50:04Z</time>
      </trkpt>
      <trkpt lat="44.39544" lon="4.18876">
        <ele>206.11</ele>
        <time>2019-03-08T15:50:36Z</time>
      </trkpt>
      <trkpt lat="44.39547" lon="4.18902">
        <ele>206</ele>
        <time>2019-03-08T15:50:56Z</time>
      </trkpt>
      <trkpt lat="44.39551" lon="4.18935">
        <ele>207.97</ele>
        <time>2019-03-08T15:51:18Z</time>
      </trkpt>
      <trkpt lat="44.39563" lon="4.18953">
        <ele>211.75</ele>
        <time>2019-03-08T15:51:42Z</time>
      </trkpt>
      <trkpt lat="44.39569" lon="4.1898">
        <ele>205.92</ele>
        <time>2019-03-08T15:52:08Z</time>
      </trkpt>
      <trkpt lat="44.39579" lon="4.19002">
        <ele>201.87</ele>
        <time>2019-03-08T15:52:28Z</time>
      </trkpt>
      <trkpt lat="44.39587" lon="4.19026">
        <ele>200.54</ele>
        <time>2019-03-08T15:52:52Z</time>
      </trkpt>
      <trkpt lat="44.39593" lon="4.1905">
        <ele>203.48</ele>
        <time>2019-03-08T15:53:16Z</time>
      </trkpt>
      <trkpt lat="44.39592" lon="4.19077">
        <ele>199.7</ele>
        <time>2019-03-08T15:53:38Z</time>
      </trkpt>
      <trkpt lat="44.39589" lon="4.19104">
        <ele>195.35</ele>
        <time>2019-03-08T15:54:04Z</time>
      </trkpt>
      <trkpt lat="44.39575" lon="4.19122">
        <ele>197.92</ele>
        <time>2019-03-08T15:54:30Z</time>
      </trkpt>
      <trkpt lat="44.39559" lon="4.19137">
        <ele>192.98</ele>
        <time>2019-03-08T15:54:58Z</time>
      </trkpt>
      <trkpt lat="44.3954" lon="4.19146">
        <ele>195.2</ele>
        <time>2019-03-08T15:55:28Z</time>
      </trkpt>
      <trkpt lat="44.39521" lon="4.19155">
        <ele>190.82</ele>
        <time>2019-03-08T15:55:52Z</time>
      </trkpt>
      <trkpt lat="44.39505" lon="4.19168">
        <ele>188.81</ele>
        <time>2019-03-08T15:56:16Z</time>
      </trkpt>
      <trkpt lat="44.39492" lon="4.19185">
        <ele>183.78</ele>
        <time>2019-03-08T15:56:34Z</time>
      </trkpt>
      <trkpt lat="44.39474" lon="4.19191">
        <ele>182.41</ele>
        <time>2019-03-08T15:56:50Z</time>
      </trkpt>
      <trkpt lat="44.39458" lon="4.1921">
        <ele>182.75</ele>
        <time>2019-03-08T15:57:14Z</time>
      </trkpt>
      <trkpt lat="44.39441" lon="4.1922">
        <ele>184.93</ele>
        <time>2019-03-08T15:57:34Z</time>
      </trkpt>
      <trkpt lat="44.39424" lon="4.19229">
        <ele>183.61</ele>
        <time>2019-03-08T15:57:50Z</time>
      </trkpt>
      <trkpt lat="44.39406" lon="4.19227">
        <ele>185.06</ele>
        <time>2019-03-08T15:58:12Z</time>
      </trkpt>
      <trkpt lat="44.39387" lon="4.19231">
        <ele>187.62</ele>
        <time>2019-03-08T15:58:40Z</time>
      </trkpt>
      <trkpt lat="44.39371" lon="4.19217">
        <ele>195.17</ele>
        <time>2019-03-08T15:59:06Z</time>
      </trkpt>
      <trkpt lat="44.39354" lon="4.19203">
        <ele>187.68</ele>
        <time>2019-03-08T15:59:30Z</time>
      </trkpt>
      <trkpt lat="44.3934" lon="4.19185">
        <ele>187.25</ele>
        <time>2019-03-08T15:59:58Z</time>
      </trkpt>
    </trkseg>
  </trk>
</gpx>